Mumbles, United Kingdom
Current Conditions -  °F | °C
As of 4:50 PM on Thursday 30 Oct 2014 (Local Time) from EGOP Reporting Station
Broken Clouds Broken Clouds  
Wind Chill: 61°   Ceiling: 1400
Heat Index: 61°   Visibility: 4mi
Dew Point: 57°   Wind: 22mph
Humidity: 88%   Direction: 180°S
Pressure: 29.97"   Gusts: NA
Location:  51.57°N, 3.98°W
Report Text: EGOP 301650Z AUTO 18019KT 7000 // BKN014/// BKN039/// 16/14 Q1015
Loading
Personal Weather Stations






























Interactive Weather Map
Tropical Storm Tracking
New forecast layout! Learn more

10-Day Weather Forecast

Advertisements
Track Severe Weather on mobile